Time;durP1;ratioP1;P1;durP2;ratioP2;P2;SDS_P1;SDS_P2;PMS_P1;PMS_P2;Temp;Humidity;BMP_temperature;BMP_pressure;BME280_temperature;BME280_humidity;BME280_pressure;Samples;Min_cycle;Max_cycle;Signal;HPM_P1;HPM_P2
2021/07/19 00:00:16;;;;;;;7.60;3.65;;;18.20;99.90;;;;;;4947217;29;20031;-74
2021/07/19 00:02:43;;;;;;;4.80;3.10;;;18.20;99.90;;;;;;4949863;29;20449;-73
2021/07/19 00:05:11;;;;;;;8.48;3.63;;;18.20;99.90;;;;;;4949554;28;20047;-73
2021/07/19 00:07:38;;;;;;;6.35;3.90;;;18.20;99.90;;;;;;4945774;28;20043;-72
2021/07/19 00:10:06;;;;;;;8.30;3.95;;;18.30;99.90;;;;;;4947763;29;20390;-75
2021/07/19 00:12:32;;;;;;;7.03;3.97;;;18.20;99.90;;;;;;4935097;29;20055;-73
2021/07/19 00:14:59;;;;;;;5.35;3.95;;;18.20;99.90;;;;;;4950433;29;20035;-74
2021/07/19 00:17:25;;;;;;;5.13;3.75;;;18.20;99.90;;;;;;4965441;29;20058;-73
2021/07/19 00:19:52;;;;;;;5.53;3.40;;;18.30;99.90;;;;;;4958841;29;20031;-72
2021/07/19 00:22:20;;;;;;;7.28;4.82;;;18.30;99.90;;;;;;4951239;29;20051;-72
2021/07/19 00:24:48;;;;;;;6.70;4.22;;;18.20;99.90;;;;;;4951991;29;20103;-73
2021/07/19 00:27:15;;;;;;;8.82;4.50;;;18.20;99.90;;;;;;4951978;29;20469;-72
2021/07/19 00:29:41;;;;;;;6.45;3.30;;;18.30;99.90;;;;;;4952947;28;20042;-74
2021/07/19 00:32:08;;;;;;;7.93;3.50;;;18.20;99.90;;;;;;4955428;29;20381;-76
2021/07/19 00:34:37;;;;;;;6.13;3.53;;;18.20;99.90;;;;;;4956231;29;20480;-73
2021/07/19 00:37:04;;;;;;;5.65;3.85;;;18.10;99.90;;;;;;4955870;29;20042;-73
2021/07/19 00:39:31;;;;;;;6.97;3.95;;;18.10;99.90;;;;;;4955900;28;20047;-73
2021/07/19 00:41:57;;;;;;;7.18;4.25;;;18.10;99.90;;;;;;4955827;28;20066;-73
2021/07/19 00:44:24;;;;;;;7.22;3.45;;;18.10;99.90;;;;;;4955659;28;20504;-73
2021/07/19 00:46:53;;;;;;;6.55;3.42;;;18.10;99.90;;;;;;4955837;28;20050;-73
2021/07/19 00:49:21;;;;;;;7.00;3.55;;;18.10;99.90;;;;;;4947822;28;20043;-74
2021/07/19 00:51:48;;;;;;;6.05;3.63;;;18.10;99.90;;;;;;4947289;29;20054;-73
2021/07/19 00:54:19;;;;;;;7.85;4.22;;;18.00;99.90;;;;;;4955840;28;20375;-73
2021/07/19 00:56:47;;;;;;;12.07;4.13;;;18.00;99.90;;;;;;4947462;29;20052;-73
2021/07/19 00:59:15;;;;;;;4.93;3.38;;;17.90;99.90;;;;;;4956262;28;20516;-73
2021/07/19 01:01:47;;;;;;;5.80;3.95;;;17.80;99.90;;;;;;4971173;28;20452;-73
2021/07/19 01:04:14;;;;;;;;;;;17.70;99.90;;;;;;4955318;29;20044;-73
2021/07/19 01:06:48;;;;;;;6.93;4.05;;;17.60;99.90;;;;;;4954611;28;20369;-73
2021/07/19 01:09:15;;;;;;;8.23;3.97;;;17.60;99.90;;;;;;4943003;28;20396;-72
2021/07/19 01:11:43;;;;;;;8.05;4.13;;;17.60;99.90;;;;;;4955298;29;20488;-72
2021/07/19 01:14:09;;;;;;;7.20;3.80;;;17.60;99.90;;;;;;4961272;28;20062;-74
2021/07/19 01:16:38;;;;;;;6.53;4.18;;;17.60;99.90;;;;;;4970299;29;20043;-73
2021/07/19 01:19:07;;;;;;;5.93;3.97;;;17.60;99.90;;;;;;4970954;28;20051;-75
2021/07/19 01:22:07;;;;;;;7.10;3.55;;;17.60;99.90;;;;;;4957292;28;20043;-72
2021/07/19 01:24:53;;;;;;;6.10;4.40;;;17.60;99.90;;;;;;4942614;29;20500;-72
2021/07/19 01:27:57;;;;;;;7.25;4.05;;;17.60;99.90;;;;;;4952189;28;20477;-73
2021/07/19 01:30:27;;;;;;;6.63;3.78;;;17.60;99.90;;;;;;4953742;28;20465;-74
2021/07/19 01:32:59;;;;;;;8.40;3.92;;;17.50;99.90;;;;;;4954727;29;20088;-74
2021/07/19 01:35:32;;;;;;;6.40;4.10;;;17.50;99.90;;;;;;4942264;29;20543;-73
2021/07/19 01:37:59;;;;;;;5.93;4.10;;;17.50;99.90;;;;;;4937998;28;20112;-73
2021/07/19 01:40:41;;;;;;;9.45;4.03;;;17.50;99.90;;;;;;4968754;28;20047;-73
2021/07/19 01:43:09;;;;;;;6.05;4.35;;;17.50;99.90;;;;;;4940879;29;20388;-75
2021/07/19 01:45:38;;;;;;;5.30;4.13;;;17.50;99.90;;;;;;4969490;28;20101;-73
2021/07/19 01:48:08;;;;;;;8.68;4.28;;;17.40;99.90;;;;;;4955770;29;20047;-73
2021/07/19 01:50:37;;;;;;;7.88;4.57;;;17.30;99.90;;;;;;4958003;29;20042;-73
2021/07/19 01:53:16;;;;;;;9.00;5.07;;;17.20;99.90;;;;;;4955087;29;20045;-73
2021/07/19 01:55:43;;;;;;;4.70;3.80;;;17.20;99.90;;;;;;4954715;29;20054;-73
2021/07/19 01:58:12;;;;;;;9.68;4.07;;;17.20;99.90;;;;;;4968678;28;20043;-73
2021/07/19 02:00:45;;;;;;;8.52;4.35;;;17.20;99.90;;;;;;4953094;29;20047;-73
2021/07/19 02:03:12;;;;;;;12.52;4.63;;;17.20;99.90;;;;;;4948138;29;20052;-74
2021/07/19 02:05:48;;;;;;;9.13;5.25;;;17.10;99.90;;;;;;4953256;28;20044;-73
2021/07/19 02:08:18;;;;;;;8.00;4.78;;;17.00;99.90;;;;;;4958970;28;20054;-73
2021/07/19 02:11:07;;;;;;;6.13;3.97;;;16.80;99.90;;;;;;4943535;29;20042;-73
2021/07/19 02:13:38;;;;;;;7.75;5.55;;;16.70;99.90;;;;;;4953009;29;20050;-72
2021/07/19 02:16:05;;;;;;;;;;;16.70;99.90;;;;;;4953676;28;20050;-73
2021/07/19 02:18:36;;;;;;;9.35;4.28;;;16.60;99.90;;;;;;4954174;29;20369;-72
2021/07/19 02:21:07;;;;;;;8.40;4.57;;;16.60;99.90;;;;;;4952816;29;20039;-72
2021/07/19 02:23:42;;;;;;;7.93;4.78;;;16.60;99.90;;;;;;4940833;29;20059;-72
2021/07/19 02:26:19;;;;;;;5.57;4.22;;;16.80;99.90;;;;;;4953539;28;20397;-73
2021/07/19 02:28:50;;;;;;;7.68;4.10;;;16.80;99.90;;;;;;4953523;28;20481;-73
2021/07/19 02:31:19;;;;;;;5.20;4.28;;;16.70;99.90;;;;;;4954188;28;20059;-73
2021/07/19 02:33:49;;;;;;;5.25;4.45;;;16.60;99.90;;;;;;4951536;28;20054;-73
2021/07/19 02:36:21;;;;;;;8.27;4.43;;;16.60;99.90;;;;;;4952757;29;20043;-73
2021/07/19 02:38:51;;;;;;;8.00;4.97;;;16.70;99.90;;;;;;4953502;28;20135;-72
2021/07/19 02:41:25;;;;;;;5.88;4.30;;;16.60;99.90;;;;;;4953658;29;20513;-72
2021/07/19 02:43:56;;;;;;;9.30;4.47;;;16.70;99.90;;;;;;4967690;28;20050;-72
2021/07/19 02:46:29;;;;;;;7.85;6.03;;;16.70;99.90;;;;;;4952146;29;20050;-73
2021/07/19 02:48:58;;;;;;;8.32;4.63;;;16.70;99.90;;;;;;4967431;28;20043;-72
2021/07/19 02:51:28;;;;;;;7.68;4.70;;;16.60;99.90;;;;;;4953538;28;20073;-72
2021/07/19 02:54:00;;;;;;;6.63;4.88;;;16.50;99.90;;;;;;4952846;28;20043;-74
2021/07/19 02:56:28;;;;;;;10.52;5.40;;;16.40;99.90;;;;;;4963218;28;20055;-73
2021/07/19 02:58:54;;;;;;;9.32;5.13;;;16.30;99.90;;;;;;4953651;29;20097;-73
2021/07/19 03:01:24;;;;;;;8.25;5.35;;;16.20;99.90;;;;;;4948786;28;20058;-73
2021/07/19 03:04:00;;;;;;;9.63;6.22;;;16.10;99.90;;;;;;4952565;29;20373;-73
2021/07/19 03:06:37;;;;;;;8.82;5.18;;;16.10;99.90;;;;;;4934868;29;20039;-72
2021/07/19 03:09:11;;;;;;;8.90;4.97;;;16.20;99.90;;;;;;4969283;28;20043;-75
2021/07/19 03:11:44;;;;;;;;;;;16.20;99.90;;;;;;4968574;28;20477;-73
2021/07/19 03:14:24;;;;;;;7.05;4.75;;;16.20;99.90;;;;;;4957785;28;19911;-72
2021/07/19 03:16:55;;;;;;;7.85;5.32;;;16.20;99.90;;;;;;4944990;28;20043;-72
2021/07/19 03:19:24;;;;;;;11.63;5.20;;;16.20;99.90;;;;;;4950648;28;20058;-72
2021/07/19 03:21:55;;;;;;;5.47;4.38;;;16.20;99.90;;;;;;4950651;28;20054;-73
2021/07/19 03:24:34;;;;;;;11.10;6.07;;;16.10;99.90;;;;;;4967728;28;20062;-73
2021/07/19 03:27:02;;;;;;;6.88;5.60;;;16.00;99.90;;;;;;4952255;28;20039;-73
2021/07/19 03:29:31;;;;;;;10.00;6.10;;;16.00;99.90;;;;;;4952238;28;20043;-73
2021/07/19 03:32:19;;;;;;;9.32;6.30;;;16.00;99.90;;;;;;4952818;29;20512;-73
2021/07/19 03:34:48;;;;;;;;;;;16.00;99.90;;;;;;4951733;28;20036;-73
2021/07/19 03:37:16;;;;;;;8.10;6.68;;;15.90;99.90;;;;;;4950517;28;19910;-73
2021/07/19 03:39:46;;;;;;;12.43;6.80;;;16.00;99.90;;;;;;4952769;28;20047;-73
2021/07/19 03:42:20;;;;;;;13.48;6.05;;;16.00;99.90;;;;;;4951311;28;20504;-73
2021/07/19 03:44:51;;;;;;;;;;;16.10;99.90;;;;;;4953662;29;20042;-73
2021/07/19 03:47:19;;;;;;;9.35;6.15;;;16.20;99.90;;;;;;4952889;28;19911;-73
2021/07/19 03:49:47;;;;;;;8.10;6.25;;;16.20;99.90;;;;;;4943636;28;20047;-72
2021/07/19 03:52:15;;;;;;;8.65;6.70;;;16.20;99.90;;;;;;4945731;29;20141;-72
2021/07/19 03:54:42;;;;;;;10.10;6.60;;;16.30;99.90;;;;;;4943203;28;20039;-72
2021/07/19 03:57:10;;;;;;;6.80;5.47;;;16.30;99.90;;;;;;4952572;29;20043;-75
2021/07/19 03:59:39;;;;;;;7.22;5.57;;;16.30;99.90;;;;;;4953569;28;20055;-73
2021/07/19 04:02:12;;;;;;;9.38;6.03;;;16.30;99.90;;;;;;4950624;28;20062;-75
2021/07/19 04:04:45;;;;;;;8.85;5.70;;;16.30;99.90;;;;;;4950160;28;20044;-73
2021/07/19 04:07:13;;;;;;;6.82;5.63;;;16.40;99.90;;;;;;4938481;29;20044;-76
2021/07/19 04:09:44;;;;;;;7.72;5.93;;;16.40;99.90;;;;;;4972986;28;20058;-74
2021/07/19 04:12:13;;;;;;;8.57;5.82;;;16.40;99.90;;;;;;4958995;29;20066;-76
2021/07/19 04:14:41;;;;;;;9.68;6.97;;;16.50;99.90;;;;;;4981735;28;20168;-73
2021/07/19 04:17:11;;;;;;;7.22;5.68;;;16.60;99.90;;;;;;4957485;28;20039;-75
2021/07/19 04:19:37;;;;;;;9.80;6.65;;;16.60;99.90;;;;;;4972078;28;20043;-73
2021/07/19 04:22:06;;;;;;;8.15;6.22;;;16.70;99.90;;;;;;4955795;29;20039;-73
2021/07/19 04:24:50;;;;;;;6.68;5.57;;;16.70;99.90;;;;;;4956166;28;20043;-74
2021/07/19 04:27:18;;;;;;;8.25;6.20;;;16.80;99.90;;;;;;4980899;28;20055;-73
2021/07/19 04:29:52;;;;;;;8.82;5.72;;;16.80;99.90;;;;;;4970723;28;20039;-73
2021/07/19 04:32:22;;;;;;;9.32;6.40;;;16.90;99.90;;;;;;4970941;28;20058;-73
2021/07/19 04:34:49;;;;;;;6.72;5.65;;;17.00;99.90;;;;;;4956195;29;20031;-73
2021/07/19 04:37:16;;;;;;;7.63;5.32;;;17.30;99.90;;;;;;4953670;28;20043;-74
2021/07/19 04:39:47;;;;;;;7.10;5.70;;;17.60;99.90;;;;;;4961454;28;20027;-74
2021/07/19 04:42:19;;;;;;;6.97;5.60;;;17.90;99.90;;;;;;4955776;28;20051;-72
2021/07/19 04:44:45;;;;;;;6.43;5.45;;;18.20;99.90;;;;;;4948707;29;20409;-73
2021/07/19 04:47:12;;;;;;;6.00;5.18;;;18.30;99.90;;;;;;4956725;28;20385;-74
2021/07/19 04:49:42;;;;;;;6.80;5.20;;;18.50;99.90;;;;;;4944948;29;20390;-73
2021/07/19 04:52:08;;;;;;;7.10;4.82;;;18.60;99.90;;;;;;4955791;29;20485;-72
2021/07/19 04:54:39;;;;;;;5.65;5.03;;;18.80;99.90;;;;;;4955345;28;20042;-71
2021/07/19 04:57:06;;;;;;;;;;;18.80;99.90;;;;;;4956323;29;20051;-73
2021/07/19 04:59:43;;;;;;;5.68;5.07;;;19.00;99.90;;;;;;4945357;29;19922;-72
2021/07/19 05:02:13;;;;;;;5.60;4.65;;;19.00;99.90;;;;;;4955795;29;20461;-72
2021/07/19 05:04:41;;;;;;;7.03;4.72;;;19.30;99.90;;;;;;4955488;28;20051;-73
2021/07/19 05:07:08;;;;;;;7.50;4.57;;;19.40;99.90;;;;;;4955904;29;20045;-73
2021/07/19 05:09:40;;;;;;;6.80;4.97;;;19.70;99.90;;;;;;4955439;28;20051;-74
2021/07/19 05:12:11;;;;;;;7.55;4.97;;;19.90;99.90;;;;;;4954161;29;20039;-74
2021/07/19 05:14:39;;;;;;;6.68;5.20;;;19.90;99.90;;;;;;4955502;29;20043;-73
2021/07/19 05:17:10;;;;;;;7.32;4.47;;;19.90;99.90;;;;;;4955763;28;20476;-73
2021/07/19 05:19:40;;;;;;;5.93;4.90;;;20.20;99.90;;;;;;4946884;29;20039;-73
2021/07/19 05:22:13;;;;;;;5.57;4.15;;;20.30;99.90;;;;;;4937371;29;20042;-73
2021/07/19 05:24:41;;;;;;;7.35;4.30;;;20.60;99.90;;;;;;4953873;28;20043;-73
2021/07/19 05:27:09;;;;;;;6.35;4.30;;;20.70;99.90;;;;;;4957030;28;20043;-73
2021/07/19 05:29:36;;;;;;;6.57;4.25;;;20.70;99.90;;;;;;4942807;28;20035;-73
2021/07/19 05:32:04;;;;;;;7.20;3.88;;;20.90;99.90;;;;;;4955924;29;20492;-73
2021/07/19 05:34:30;;;;;;;6.53;4.18;;;21.00;99.90;;;;;;4953950;28;20046;-73
2021/07/19 05:36:57;;;;;;;6.47;4.45;;;21.20;99.90;;;;;;4946969;29;20032;-73
2021/07/19 05:39:23;;;;;;;5.05;4.05;;;21.20;99.90;;;;;;4955311;28;20054;-73
2021/07/19 05:41:50;;;;;;;5.15;3.72;;;21.10;99.90;;;;;;4953772;28;20643;-73
2021/07/19 05:44:16;;;;;;;5.03;3.97;;;21.60;98.90;;;;;;4943625;29;20054;-73
2021/07/19 05:46:42;;;;;;;4.85;4.20;;;21.70;98.90;;;;;;4957875;28;20054;-72
2021/07/19 05:49:08;;;;;;;4.95;4.03;;;21.90;98.40;;;;;;4965448;29;20035;-72
2021/07/19 05:51:35;;;;;;;6.28;4.07;;;22.10;97.50;;;;;;4960093;28;20043;-72
2021/07/19 05:54:03;;;;;;;12.25;4.63;;;22.10;97.40;;;;;;4947199;29;20031;-73
2021/07/19 05:56:31;;;;;;;6.65;3.90;;;21.70;97.50;;;;;;4955161;29;20043;-73
2021/07/19 05:58:58;;;;;;;6.15;4.00;;;21.60;98.10;;;;;;4959350;28;20366;-73
2021/07/19 06:01:25;;;;;;;6.07;3.65;;;21.80;98.00;;;;;;4954708;29;20042;-73
2021/07/19 06:03:51;;;;;;;7.60;4.13;;;21.90;97.70;;;;;;4953083;28;20055;-71
2021/07/19 06:06:17;;;;;;;5.57;3.67;;;21.90;97.50;;;;;;4945968;28;20043;-73
2021/07/19 06:08:43;;;;;;;4.90;3.60;;;22.00;97.40;;;;;;4936378;29;20039;-72
2021/07/19 06:11:09;;;;;;;6.40;4.10;;;22.20;97.50;;;;;;4936102;29;20047;-72
2021/07/19 06:13:36;;;;;;;6.35;4.07;;;22.20;96.90;;;;;;4948570;28;20047;-72
2021/07/19 06:16:02;;;;;;;3.95;3.45;;;21.90;97.30;;;;;;4970612;28;20050;-71
2021/07/19 06:18:28;;;;;;;6.63;3.70;;;22.20;97.20;;;;;;4955699;29;20039;-74
2021/07/19 06:20:55;;;;;;;5.38;3.45;;;23.00;95.60;;;;;;4953363;29;20038;-72
2021/07/19 06:23:21;;;;;;;4.78;3.40;;;23.10;94.80;;;;;;4953217;28;20047;-73
2021/07/19 06:25:50;;;;;;;4.78;3.60;;;23.10;94.60;;;;;;4954356;29;20042;-72
2021/07/19 06:28:16;;;;;;;4.85;3.10;;;22.90;94.80;;;;;;4954751;28;20146;-76
2021/07/19 06:30:42;;;;;;;6.13;3.35;;;22.70;95.50;;;;;;4954560;29;20035;-72
2021/07/19 06:33:09;;;;;;;8.00;4.50;;;22.40;95.40;;;;;;4953815;29;20046;-73
2021/07/19 06:35:35;;;;;;;5.63;3.65;;;22.20;95.70;;;;;;4953528;29;20031;-72
2021/07/19 06:38:01;;;;;;;7.85;4.20;;;21.90;96.10;;;;;;4950208;29;20038;-74
2021/07/19 06:40:27;;;;;;;5.13;3.17;;;22.00;95.90;;;;;;4961072;28;20397;-73
2021/07/19 06:42:54;;;;;;;5.05;3.97;;;21.90;96.00;;;;;;4946055;29;20050;-73
2021/07/19 06:45:20;;;;;;;7.10;3.70;;;22.20;95.50;;;;;;4953566;29;20031;-73
2021/07/19 06:47:46;;;;;;;6.05;4.00;;;22.20;95.40;;;;;;4952181;28;20035;-73
2021/07/19 06:50:13;;;;;;;6.75;3.67;;;22.50;95.00;;;;;;4951771;29;20039;-73
2021/07/19 06:52:41;;;;;;;7.20;4.13;;;22.80;94.90;;;;;;4954602;29;20381;-73
2021/07/19 06:55:09;;;;;;;6.95;3.97;;;22.50;94.90;;;;;;4936541;28;20051;-73
2021/07/19 06:57:36;;;;;;;6.07;3.50;;;22.50;95.20;;;;;;4946549;28;20469;-72
2021/07/19 07:00:07;;;;;;;3.60;3.17;;;22.90;94.90;;;;;;4947799;29;20039;-73
2021/07/19 07:02:34;;;;;;;7.60;3.67;;;23.00;94.60;;;;;;4943578;29;20054;-73
2021/07/19 07:05:00;;;;;;;5.32;3.78;;;22.90;94.50;;;;;;4953279;28;20044;-72
2021/07/19 07:07:26;;;;;;;8.65;3.33;;;22.70;94.80;;;;;;4953480;29;20031;-72
2021/07/19 07:09:52;;;;;;;6.30;3.50;;;22.90;94.50;;;;;;4971681;28;20035;-73
2021/07/19 07:12:20;;;;;;;6.07;3.65;;;23.10;94.00;;;;;;4960956;28;20027;-73
2021/07/19 07:14:46;;;;;;;5.25;3.55;;;23.30;93.70;;;;;;4961048;28;20042;-72
2021/07/19 07:17:13;;;;;;;5.72;4.13;;;23.10;93.90;;;;;;4957912;28;20027;-72
2021/07/19 07:19:39;;;;;;;5.30;3.30;;;23.40;93.50;;;;;;4962430;28;20051;-71
2021/07/19 07:22:05;;;;;;;6.15;3.20;;;23.80;93.40;;;;;;4963908;28;20036;-73
2021/07/19 07:24:31;;;;;;;4.30;3.10;;;24.00;92.80;;;;;;4962871;28;20061;-72
2021/07/19 07:26:58;;;;;;;4.38;3.05;;;24.10;92.30;;;;;;4958468;28;20022;-70
2021/07/19 07:29:24;;;;;;;3.30;2.90;;;24.50;90.80;;;;;;4982731;28;20050;-73
2021/07/19 07:31:51;;;;;;;5.57;3.35;;;24.60;90.80;;;;;;4961840;28;20031;-71
2021/07/19 07:34:17;;;;;;;6.53;3.47;;;24.60;90.10;;;;;;4953117;28;20031;-75
2021/07/19 07:36:44;;;;;;;6.45;2.83;;;24.20;90.80;;;;;;4968786;28;20046;-74
2021/07/19 07:39:11;;;;;;;6.95;3.38;;;24.00;91.40;;;;;;4963770;28;20034;-73
2021/07/19 07:41:37;;;;;;;7.00;2.63;;;24.10;91.10;;;;;;4969004;28;20042;-73
2021/07/19 07:44:04;;;;;;;4.80;3.30;;;24.00;91.70;;;;;;4966204;28;20441;-72
2021/07/19 07:46:30;;;;;;;5.78;3.15;;;25.10;90.30;;;;;;4966683;28;20046;-73
2021/07/19 07:48:56;;;;;;;5.43;3.55;;;24.60;90.30;;;;;;4963507;28;20039;-71
2021/07/19 07:51:23;;;;;;;4.15;3.00;;;23.70;91.60;;;;;;4951870;28;20043;-71
2021/07/19 07:53:49;;;;;;;6.65;3.00;;;24.40;91.50;;;;;;4955352;28;20513;-72
2021/07/19 07:56:15;;;;;;;6.28;3.33;;;24.40;91.10;;;;;;4948803;29;20044;-71
2021/07/19 07:58:42;;;;;;;4.70;3.08;;;24.70;90.50;;;;;;4958666;28;20031;-73
2021/07/19 08:01:09;;;;;;;7.70;2.85;;;24.80;90.40;;;;;;4963156;28;20035;-72
2021/07/19 08:03:35;;;;;;;5.28;2.80;;;24.30;90.20;;;;;;4964550;28;20453;-72
2021/07/19 08:06:01;;;;;;;3.80;2.55;;;24.60;90.70;;;;;;4970546;28;20053;-72
2021/07/19 08:08:27;;;;;;;10.02;3.20;;;24.60;90.20;;;;;;4982494;28;20023;-73
2021/07/19 08:10:54;;;;;;;3.38;2.50;;;25.00;89.10;;;;;;4978512;28;20027;-72
2021/07/19 08:13:20;;;;;;;5.95;2.65;;;25.20;88.40;;;;;;4962980;28;20043;-72
2021/07/19 08:15:47;;;;;;;5.05;2.92;;;25.70;87.80;;;;;;4958380;28;20039;-72
2021/07/19 08:18:15;;;;;;;5.40;3.05;;;25.80;86.20;;;;;;4959137;28;20047;-72
2021/07/19 08:20:43;;;;;;;8.68;2.90;;;24.80;88.10;;;;;;4957957;29;20031;-73
2021/07/19 08:23:10;;;;;;;6.55;3.00;;;25.10;89.00;;;;;;4958926;29;20397;-72
2021/07/19 08:25:37;;;;;;;6.80;3.00;;;25.30;87.00;;;;;;4957310;28;20477;-71
2021/07/19 08:28:04;;;;;;;5.03;3.58;;;25.40;86.50;;;;;;4959071;28;20389;-72
2021/07/19 08:30:30;;;;;;;6.78;3.03;;;25.10;88.60;;;;;;4958597;29;20358;-72
2021/07/19 08:32:58;;;;;;;5.95;2.60;;;25.80;84.80;;;;;;4974774;28;20041;-71
2021/07/19 08:35:25;;;;;;;5.78;2.83;;;26.20;83.00;;;;;;4956989;28;20411;-72
2021/07/19 08:37:56;;;;;;;6.63;3.08;;;26.50;81.90;;;;;;4964691;28;20027;-71
2021/07/19 08:40:24;;;;;;;5.75;2.75;;;26.20;83.30;;;;;;4964231;28;20038;-72
2021/07/19 08:42:50;;;;;;;3.72;2.80;;;25.80;83.10;;;;;;4967259;28;20031;-72
2021/07/19 08:45:17;;;;;;;6.38;3.20;;;25.40;84.40;;;;;;4967690;28;20036;-71
2021/07/19 08:47:47;;;;;;;5.85;3.50;;;25.10;85.40;;;;;;4965829;28;20057;-73
2021/07/19 08:50:15;;;;;;;4.80;2.70;;;25.00;85.00;;;;;;4968580;28;20046;-72
2021/07/19 08:52:45;;;;;;;6.53;3.60;;;25.30;85.20;;;;;;4960097;28;20043;-71
2021/07/19 08:55:13;;;;;;;5.38;3.08;;;25.80;82.20;;;;;;4957102;28;20038;-72
2021/07/19 08:57:43;;;;;;;3.78;2.92;;;25.90;81.10;;;;;;4954874;28;20033;-71
2021/07/19 09:00:09;;;;;;;;;;;26.00;81.20;;;;;;4967510;28;20505;-72
2021/07/19 09:02:36;;;;;;;6.25;3.25;;;26.40;80.50;;;;;;4956046;28;20364;-72
2021/07/19 09:05:04;;;;;;;5.35;3.40;;;26.30;80.30;;;;;;4955783;29;20061;-72
2021/07/19 09:07:31;;;;;;;5.70;3.35;;;25.10;83.50;;;;;;4944295;29;20361;-72
2021/07/19 09:09:59;;;;;;;5.60;3.10;;;24.30;85.40;;;;;;4949253;28;20050;-72
2021/07/19 09:12:38;;;;;;;7.78;2.97;;;23.50;87.30;;;;;;4955175;28;20046;-72
2021/07/19 09:15:24;;;;;;;3.33;2.97;;;24.10;87.40;;;;;;4937502;29;20044;-72
2021/07/19 09:17:56;;;;;;;5.53;3.08;;;24.60;83.90;;;;;;4969401;28;20371;-72
2021/07/19 09:20:28;;;;;;;6.80;3.65;;;24.20;84.40;;;;;;4953928;28;20039;-73
2021/07/19 09:22:54;;;;;;;4.90;2.83;;;24.30;85.70;;;;;;4955428;29;20031;-72
2021/07/19 09:25:21;;;;;;;5.30;3.00;;;24.60;84.30;;;;;;4955018;29;20378;-75
2021/07/19 09:27:51;;;;;;;5.47;3.17;;;25.00;83.10;;;;;;4954081;29;20378;-72
2021/07/19 09:30:18;;;;;;;7.53;3.25;;;25.10;83.50;;;;;;4946220;29;20031;-71
2021/07/19 09:32:52;;;;;;;4.32;2.58;;;25.70;80.80;;;;;;4954166;28;20496;-72
2021/07/19 09:35:18;;;;;;;6.03;2.75;;;25.70;80.00;;;;;;4954057;28;20119;-73
2021/07/19 09:37:44;;;;;;;5.15;2.88;;;25.90;80.30;;;;;;4954642;29;20031;-71
2021/07/19 09:40:11;;;;;;;6.25;4.45;;;26.60;78.80;;;;;;4954120;29;20043;-71
2021/07/19 09:42:43;;;;;;;4.30;3.00;;;26.90;77.80;;;;;;4954538;29;20038;-72
2021/07/19 09:45:14;;;;;;;6.15;3.35;;;26.50;76.80;;;;;;4943362;28;20417;-73
2021/07/19 09:47:41;;;;;;;3.80;2.78;;;26.50;77.50;;;;;;4954811;29;20035;-72
2021/07/19 09:50:10;;;;;;;6.03;3.15;;;26.40;78.80;;;;;;4954744;28;20477;-72
2021/07/19 09:52:36;;;;;;;5.93;3.00;;;26.60;77.90;;;;;;4954589;28;20051;-72
2021/07/19 09:55:03;;;;;;;6.47;3.42;;;26.70;76.40;;;;;;4953391;28;20043;-72
2021/07/19 09:57:29;;;;;;;6.22;3.15;;;26.10;77.50;;;;;;4954566;29;20047;-72
2021/07/19 09:59:58;;;;;;;5.88;2.55;;;25.60;79.00;;;;;;4952028;28;20035;-71
2021/07/19 10:02:35;;;;;;;6.68;3.75;;;25.60;79.40;;;;;;4936104;29;20035;-73
2021/07/19 10:05:07;;;;;;;6.25;3.58;;;25.30;78.30;;;;;;4946738;29;20429;-72
2021/07/19 10:07:33;;;;;;;4.35;2.97;;;24.70;79.90;;;;;;4936862;29;20036;-71
2021/07/19 10:10:08;;;;;;;7.43;3.17;;;25.50;79.30;;;;;;4939755;29;20474;-71
2021/07/19 10:12:34;;;;;;;6.18;3.35;;;25.50;78.70;;;;;;4965032;28;20393;-72
2021/07/19 10:15:02;;;;;;;4.32;3.33;;;25.70;77.30;;;;;;4957220;29;20042;-73
2021/07/19 10:17:31;;;;;;;7.38;3.28;;;25.60;76.50;;;;;;4955502;29;20042;-72
2021/07/19 10:19:57;;;;;;;7.18;3.33;;;25.90;76.40;;;;;;4955970;29;20040;-72
2021/07/19 10:22:24;;;;;;;6.63;3.75;;;25.70;78.00;;;;;;4963244;29;20039;-74
2021/07/19 10:24:51;;;;;;;5.07;3.63;;;25.80;77.70;;;;;;4960056;29;20043;-73
2021/07/19 10:27:19;;;;;;;5.60;3.67;;;25.50;78.20;;;;;;4954671;29;20039;-73
2021/07/19 10:29:47;;;;;;;6.72;4.00;;;24.90;78.50;;;;;;4953759;29;20031;-72
2021/07/19 10:32:22;;;;;;;10.15;3.78;;;24.60;78.80;;;;;;4954313;29;20039;-71
2021/07/19 10:34:54;;;;;;;6.50;4.00;;;24.50;79.90;;;;;;4954064;29;20043;-72
2021/07/19 10:37:25;;;;;;;6.35;3.25;;;24.90;78.10;;;;;;4967469;28;20043;-73
2021/07/19 10:39:55;;;;;;;6.43;3.75;;;24.90;78.60;;;;;;4954137;29;20035;-71
2021/07/19 10:42:32;;;;;;;6.28;3.78;;;24.80;77.90;;;;;;4953612;29;20043;-74
2021/07/19 10:45:07;;;;;;;5.32;3.58;;;24.30;79.40;;;;;;4953757;29;20039;-72
2021/07/19 10:47:54;;;;;;;6.65;3.33;;;24.10;79.50;;;;;;4952331;29;20043;-72
2021/07/19 10:50:25;;;;;;;6.25;3.75;;;24.10;79.20;;;;;;4955008;28;20031;-71
2021/07/19 10:52:58;;;;;;;4.93;3.60;;;24.30;80.10;;;;;;4960265;28;20031;-70
2021/07/19 10:55:29;;;;;;;5.15;3.90;;;25.00;78.60;;;;;;4948243;29;20038;-72
2021/07/19 10:58:03;;;;;;;6.97;3.30;;;25.00;76.80;;;;;;4955666;28;20062;-71
2021/07/19 11:00:39;;;;;;;7.63;3.78;;;24.90;77.80;;;;;;4958953;28;20397;-72
2021/07/19 11:03:08;;;;;;;6.50;3.70;;;24.70;77.00;;;;;;4953999;28;20043;-72
2021/07/19 11:05:40;;;;;;;6.57;3.65;;;24.60;77.80;;;;;;4963770;28;20042;-72
2021/07/19 11:08:18;;;;;;;5.57;3.30;;;24.90;77.10;;;;;;4934354;29;20032;-72
2021/07/19 11:10:45;;;;;;;5.20;3.40;;;24.80;76.20;;;;;;4939549;29;20629;-73
2021/07/19 11:13:27;;;;;;;7.40;3.92;;;24.70;76.20;;;;;;4953425;29;20027;-73
2021/07/19 11:15:53;;;;;;;5.95;3.60;;;24.90;77.10;;;;;;4954055;28;20055;-74
2021/07/19 11:18:26;;;;;;;5.88;4.07;;;25.10;76.80;;;;;;4961688;28;20034;-72
2021/07/19 11:20:57;;;;;;;8.63;3.83;;;25.00;75.60;;;;;;4942853;28;20040;-72
2021/07/19 11:23:34;;;;;;;5.53;3.70;;;25.10;75.50;;;;;;4950791;29;20043;-73
2021/07/19 11:26:03;;;;;;;5.07;3.70;;;25.30;75.20;;;;;;4955666;28;20031;-71
2021/07/19 11:28:39;;;;;;;4.82;3.33;;;25.30;74.30;;;;;;4977457;28;20091;-72
2021/07/19 11:31:10;;;;;;;6.93;3.72;;;25.10;73.10;;;;;;4951920;28;20477;-71
2021/07/19 11:33:39;;;;;;;6.78;3.25;;;24.90;74.50;;;;;;4952663;29;20031;-72
2021/07/19 11:36:23;;;;;;;5.65;3.35;;;25.30;74.80;;;;;;4945698;28;20063;-71
2021/07/19 11:38:51;;;;;;;5.88;3.42;;;25.70;73.70;;;;;;4949555;29;20031;-72
2021/07/19 11:41:21;;;;;;;7.82;3.30;;;25.60;71.60;;;;;;4962967;28;20034;-72
2021/07/19 11:43:49;;;;;;;9.45;3.42;;;25.30;71.60;;;;;;4935922;29;20039;-71
2021/07/19 11:46:23;;;;;;;5.53;3.20;;;25.20;71.50;;;;;;4935639;29;20043;-72
2021/07/19 11:48:50;;;;;;;5.80;3.92;;;25.20;71.80;;;;;;4954316;28;20520;-72
2021/07/19 11:51:21;;;;;;;5.53;3.13;;;25.20;72.10;;;;;;4962464;28;20039;-75
2021/07/19 11:53:47;;;;;;;5.43;3.85;;;25.50;71.20;;;;;;4957390;28;20393;-75
2021/07/19 11:56:13;;;;;;;7.32;3.15;;;25.40;70.20;;;;;;4951663;29;20408;-73
2021/07/19 11:58:51;;;;;;;4.47;3.53;;;25.40;69.80;;;;;;4958176;28;20074;-74
2021/07/19 12:01:28;;;;;;;4.93;2.92;;;25.20;68.70;;;;;;4936089;28;20048;-73
2021/07/19 12:03:55;;;;;;;7.00;3.05;;;25.40;68.10;;;;;;4961781;29;20039;-72
2021/07/19 12:06:23;;;;;;;6.22;3.20;;;25.70;67.70;;;;;;4966674;29;20033;-74
2021/07/19 12:08:53;;;;;;;5.05;2.67;;;25.40;66.90;;;;;;4946312;28;20039;-73
2021/07/19 12:11:20;;;;;;;6.40;3.53;;;25.50;68.60;;;;;;4952136;28;20046;-72
2021/07/19 12:13:47;;;;;;;5.13;3.45;;;25.70;66.50;;;;;;4951672;29;20054;-73
2021/07/19 12:16:15;;;;;;;5.88;3.17;;;25.60;66.80;;;;;;4967738;28;20054;-72
2021/07/19 12:18:49;;;;;;;6.25;3.17;;;25.50;67.70;;;;;;4952383;29;20031;-73
2021/07/19 12:21:19;;;;;;;6.20;4.13;;;25.60;66.80;;;;;;4952977;29;20035;-72
2021/07/19 12:23:53;;;;;;;10.60;3.50;;;25.80;68.30;;;;;;4952478;29;20465;-72
2021/07/19 12:26:34;;;;;;;8.52;3.72;;;25.90;67.40;;;;;;4953804;28;20050;-72
2021/07/19 12:29:06;;;;;;;10.52;3.88;;;25.70;66.60;;;;;;4955522;29;20031;-73
2021/07/19 12:31:37;;;;;;;7.93;4.15;;;25.60;69.10;;;;;;4954476;29;20493;-72
2021/07/19 12:34:15;;;;;;;6.82;3.75;;;26.00;68.60;;;;;;4956255;29;20047;-73
2021/07/19 12:36:58;;;;;;;6.78;4.35;;;25.90;67.60;;;;;;4956086;28;20044;-72
2021/07/19 12:39:27;;;;;;;5.95;4.03;;;25.90;65.80;;;;;;4957624;28;20051;-74
2021/07/19 12:41:55;;;;;;;9.15;4.45;;;25.60;66.70;;;;;;4955926;29;20035;-73
2021/07/19 12:44:31;;;;;;;5.50;4.15;;;25.60;66.70;;;;;;4957143;28;20401;-73
2021/07/19 12:46:58;;;;;;;9.13;5.20;;;25.70;67.30;;;;;;4959177;28;20031;-73
2021/07/19 12:49:26;;;;;;;9.05;4.53;;;25.90;66.20;;;;;;4956167;28;20059;-74
2021/07/19 12:51:57;;;;;;;8.02;5.15;;;26.00;65.90;;;;;;4956130;29;20039;-73
2021/07/19 12:54:24;;;;;;;5.82;4.75;;;25.70;67.70;;;;;;4961952;28;20051;-73
2021/07/19 12:56:50;;;;;;;9.40;5.45;;;25.90;66.10;;;;;;4955400;29;20058;-72
2021/07/19 12:59:17;;;;;;;7.18;6.00;;;25.90;65.40;;;;;;4948721;29;20043;-72